Wetter Infos

Wetter-Informationen f√ľr den Flugplatz Hof

Die wichtigsten und aktuellen Wetterdaten f√ľr den Flugplatz Hof-Plauen sowie f√ľr die Umgebung haben wir hier zusammengestellt.

METARs

EDQM 201550Z 00000KT CAVOK 09/M05 Q1032

EDDN 201550Z VRB05KT CAVOK 11/M04 Q1033 NOSIG

EDDP 201550Z 24008KT CAVOK 12/01 Q1032 NOSIG

EDDC 201550Z 28006KT 240V320 CAVOK 10/M01 Q1033 NOSIG

Hof Wetter

DWD – Abruf von Luftsportberichten HIER


Aktuelles Niederschlagsradar

Quelle: © Deutscher Wetterdienst
Quelle: Deutscher Wetterdienst